Time;durP1;ratioP1;P1;durP2;ratioP2;P2;SDS_P1;SDS_P2;PMS_P1;PMS_P2;Temp;Humidity;BMP_temperature;BMP_pressure;BME280_temperature;BME280_humidity;BME280_pressure;Samples;Min_cycle;Max_cycle;Signal;HPM_P1;HPM_P2
2021/09/19 00:01:20;;;;;;;10.55;7.63;;;15.40;89.70;;;;;;5033364;28;20052;-78
2021/09/19 00:03:46;;;;;;;9.93;6.45;;;15.40;89.80;;;;;;5044982;28;20021;-76
2021/09/19 00:06:12;;;;;;;10.55;7.93;;;15.30;89.80;;;;;;5032950;28;20033;-78
2021/09/19 00:08:38;;;;;;;9.27;6.85;;;15.30;90.00;;;;;;5034372;28;20025;-78
2021/09/19 00:11:04;;;;;;;7.80;6.30;;;15.30;90.00;;;;;;5033743;28;20072;-78
2021/09/19 00:13:29;;;;;;;9.00;7.15;;;15.30;90.00;;;;;;5034638;28;20045;-78
2021/09/19 00:15:55;;;;;;;7.85;5.43;;;15.30;90.10;;;;;;5035591;28;20033;-81
2021/09/19 00:18:21;;;;;;;9.95;7.18;;;15.20;90.10;;;;;;5045784;28;20009;-79
2021/09/19 00:20:47;;;;;;;8.73;7.43;;;15.20;90.10;;;;;;5055499;28;20021;-79
2021/09/19 00:23:13;;;;;;;9.75;6.85;;;15.20;90.10;;;;;;5055159;28;20089;-79
2021/09/19 00:25:39;;;;;;;9.82;7.35;;;15.20;90.20;;;;;;5053690;28;20041;-78
2021/09/19 00:28:05;;;;;;;8.40;5.63;;;15.20;90.30;;;;;;5037390;28;20049;-79
2021/09/19 00:30:32;;;;;;;10.73;8.32;;;15.20;90.30;;;;;;5037070;28;20049;-77
2021/09/19 00:32:59;;;;;;;9.07;6.82;;;15.20;90.30;;;;;;5035533;28;20112;-78
2021/09/19 00:35:25;;;;;;;9.00;6.25;;;15.10;90.50;;;;;;5037420;28;20032;-78
2021/09/19 00:37:51;;;;;;;8.07;6.25;;;15.10;90.50;;;;;;5035691;28;20390;-78
2021/09/19 00:40:16;;;;;;;10.38;7.90;;;15.10;90.60;;;;;;5046735;28;20021;-78
2021/09/19 00:42:42;;;;;;;8.93;6.80;;;15.10;90.60;;;;;;5036074;28;20028;-77
2021/09/19 00:45:11;;;;;;;7.45;6.47;;;15.10;90.60;;;;;;5036539;28;20528;-77
2021/09/19 00:47:39;;;;;;;10.18;9.00;;;15.10;90.60;;;;;;5035565;28;20025;-78
2021/09/19 00:50:11;;;;;;;9.50;8.00;;;15.10;90.60;;;;;;5037085;28;20033;-79
2021/09/19 00:52:42;;;;;;;12.00;8.25;;;15.10;90.70;;;;;;5037342;28;20291;-79
2021/09/19 00:55:09;;;;;;;11.00;8.75;;;15.10;90.70;;;;;;5035825;28;20071;-79
2021/09/19 00:57:42;;;;;;;11.40;7.75;;;15.00;90.80;;;;;;5035610;28;20072;-79
2021/09/19 01:00:09;;;;;;;8.65;6.38;;;15.00;90.80;;;;;;5019011;28;20032;-78
2021/09/19 01:02:35;;;;;;;10.88;9.48;;;15.00;90.90;;;;;;5037228;28;20462;-79
2021/09/19 01:05:01;;;;;;;9.10;7.57;;;15.00;90.90;;;;;;5035216;28;20018;-79
2021/09/19 01:07:27;;;;;;;10.40;7.95;;;15.00;90.90;;;;;;5035371;28;20033;-78
2021/09/19 01:09:53;;;;;;;11.75;9.00;;;15.00;90.90;;;;;;5036635;28;20102;-78
2021/09/19 01:12:25;;;;;;;9.85;7.07;;;14.90;90.90;;;;;;5037052;28;20030;-79
2021/09/19 01:14:51;;;;;;;9.68;7.38;;;15.00;91.00;;;;;;5037609;28;20025;-78
2021/09/19 01:17:18;;;;;;;9.23;7.35;;;14.90;91.00;;;;;;5047983;28;20395;-78
2021/09/19 01:19:48;;;;;;;11.80;9.60;;;14.90;91.10;;;;;;5035988;28;20026;-79
2021/09/19 01:22:14;;;;;;;10.17;8.70;;;14.90;91.10;;;;;;5036464;28;20025;-77
2021/09/19 01:24:41;;;;;;;11.50;9.77;;;14.90;91.20;;;;;;5036215;28;20026;-78
2021/09/19 01:27:07;;;;;;;9.98;8.15;;;14.80;91.20;;;;;;5035886;28;20034;-77
2021/09/19 01:29:34;;;;;;;13.88;9.88;;;14.90;91.20;;;;;;5036676;28;20117;-77
2021/09/19 01:32:00;;;;;;;10.25;8.77;;;14.80;91.30;;;;;;5035879;28;20032;-77
2021/09/19 01:34:27;;;;;;;13.48;11.10;;;14.80;91.30;;;;;;5036078;28;20090;-78
2021/09/19 01:36:53;;;;;;;11.43;8.95;;;14.80;91.40;;;;;;5033904;28;20040;-78
2021/09/19 01:39:19;;;;;;;12.27;10.43;;;14.80;91.40;;;;;;5036191;28;20021;-79
2021/09/19 01:41:44;;;;;;;13.50;10.90;;;14.80;91.50;;;;;;5034937;28;20044;-79
2021/09/19 01:44:10;;;;;;;11.85;9.77;;;14.80;91.50;;;;;;5035140;28;20026;-79
2021/09/19 01:46:37;;;;;;;10.82;8.13;;;14.80;91.50;;;;;;5035233;28;20462;-78
2021/09/19 01:49:07;;;;;;;12.55;9.80;;;14.80;91.60;;;;;;5035253;28;20025;-78
2021/09/19 01:51:33;;;;;;;11.15;7.88;;;14.80;91.60;;;;;;5035559;28;20470;-79
2021/09/19 01:53:59;;;;;;;9.70;8.52;;;14.80;91.60;;;;;;5046884;28;20044;-78
2021/09/19 01:56:25;;;;;;;13.77;11.48;;;14.80;91.60;;;;;;5034749;28;20029;-78
2021/09/19 01:58:54;;;;;;;12.25;10.32;;;14.80;91.60;;;;;;5034711;28;20025;-78
2021/09/19 02:01:21;;;;;;;11.13;9.05;;;14.70;91.60;;;;;;5035795;28;20382;-79
2021/09/19 02:03:52;;;;;;;9.10;6.90;;;14.70;91.70;;;;;;5035635;28;20025;-78
2021/09/19 02:06:18;;;;;;;14.32;10.63;;;14.70;91.70;;;;;;5033600;28;20017;-79
2021/09/19 02:08:44;;;;;;;13.05;11.13;;;14.60;91.70;;;;;;5035861;28;20470;-79
2021/09/19 02:11:12;;;;;;;11.48;9.77;;;14.60;91.80;;;;;;5042720;28;20032;-79
2021/09/19 02:13:39;;;;;;;12.40;8.98;;;14.60;91.90;;;;;;5058089;28;20026;-79
2021/09/19 02:16:07;;;;;;;13.55;10.25;;;14.60;91.90;;;;;;5054520;28;20107;-77
2021/09/19 02:18:34;;;;;;;14.10;11.40;;;14.60;91.90;;;;;;5048498;28;20067;-77
2021/09/19 02:21:01;;;;;;;11.90;10.18;;;14.60;91.90;;;;;;5036479;28;20033;-77
2021/09/19 02:23:27;;;;;;;13.95;10.75;;;14.60;92.00;;;;;;5035807;28;20025;-77
2021/09/19 02:25:53;;;;;;;15.57;12.95;;;14.60;92.00;;;;;;5035615;28;20357;-77
2021/09/19 02:28:19;;;;;;;12.65;9.90;;;14.60;92.00;;;;;;5035101;28;20041;-78
2021/09/19 02:30:45;;;;;;;10.98;9.40;;;14.60;92.00;;;;;;5049399;28;20036;-77
2021/09/19 02:33:11;;;;;;;15.77;11.90;;;14.60;92.00;;;;;;5035523;28;20077;-76
2021/09/19 02:35:37;;;;;;;11.20;10.00;;;14.60;92.00;;;;;;5034335;28;20032;-76
2021/09/19 02:38:03;;;;;;;15.27;13.32;;;14.60;92.00;;;;;;5033511;28;20028;-77
2021/09/19 02:40:29;;;;;;;13.13;10.82;;;14.60;92.00;;;;;;5033516;28;20500;-78
2021/09/19 02:42:55;;;;;;;15.52;12.20;;;14.60;92.10;;;;;;5033561;28;20076;-78
2021/09/19 02:45:22;;;;;;;13.07;10.85;;;14.60;92.10;;;;;;5034232;28;20022;-77
2021/09/19 02:47:47;;;;;;;14.57;10.60;;;14.60;92.10;;;;;;5033770;28;20455;-77
2021/09/19 02:50:16;;;;;;;15.45;9.63;;;14.60;92.10;;;;;;5034195;28;20097;-78
2021/09/19 02:52:42;;;;;;;15.50;13.10;;;14.50;92.10;;;;;;5016530;28;20043;-78
2021/09/19 02:55:08;;;;;;;12.70;10.18;;;14.50;92.10;;;;;;5032576;28;20025;-78
2021/09/19 02:57:34;;;;;;;17.00;11.75;;;14.50;92.20;;;;;;5032516;28;20017;-77
2021/09/19 03:00:00;;;;;;;14.48;10.93;;;14.50;92.20;;;;;;5034181;28;20430;-78
2021/09/19 03:02:25;;;;;;;12.93;10.35;;;14.50;92.20;;;;;;5034302;28;20025;-78
2021/09/19 03:04:51;;;;;;;11.65;9.38;;;14.50;92.30;;;;;;5034138;28;20026;-77
2021/09/19 03:07:16;;;;;;;11.27;9.73;;;14.50;92.60;;;;;;5036022;28;20128;-78
2021/09/19 03:09:42;;;;;;;10.70;8.45;;;14.40;92.30;;;;;;5033350;28;20077;-77
2021/09/19 03:12:08;;;;;;;16.17;12.68;;;14.40;92.30;;;;;;5032848;28;20021;-77
2021/09/19 03:14:33;;;;;;;15.75;12.20;;;14.40;92.40;;;;;;5032839;28;20018;-78
2021/09/19 03:16:59;;;;;;;14.15;12.05;;;14.40;92.40;;;;;;5032819;28;20025;-77
2021/09/19 03:19:24;;;;;;;16.08;12.18;;;14.40;92.40;;;;;;5034844;28;20458;-77
2021/09/19 03:21:50;;;;;;;17.48;14.30;;;14.40;92.40;;;;;;5034030;28;20057;-78
2021/09/19 03:24:15;;;;;;;15.20;12.02;;;14.50;92.50;;;;;;5033676;28;20045;-77
2021/09/19 03:26:41;;;;;;;12.73;9.93;;;14.50;92.50;;;;;;5034146;28;20044;-78
2021/09/19 03:29:07;;;;;;;14.90;12.73;;;14.50;92.40;;;;;;5031704;28;20044;-79
2021/09/19 03:31:32;;;;;;;16.83;13.00;;;14.50;92.40;;;;;;5032453;28;20121;-79
2021/09/19 03:33:58;;;;;;;13.98;10.20;;;14.60;92.40;;;;;;5015773;28;20124;-78
2021/09/19 03:36:24;;;;;;;11.35;9.07;;;14.60;92.40;;;;;;5033261;28;20168;-77
2021/09/19 03:38:49;;;;;;;17.13;13.52;;;14.50;92.30;;;;;;5033019;28;20520;-77
2021/09/19 03:41:15;;;;;;;14.77;11.73;;;14.60;92.40;;;;;;5032477;28;20083;-76
2021/09/19 03:43:41;;;;;;;14.68;12.55;;;14.50;92.30;;;;;;5036405;28;20021;-77
2021/09/19 03:46:07;;;;;;;14.90;12.52;;;14.50;92.40;;;;;;5035674;28;20048;-77
2021/09/19 03:48:33;;;;;;;10.43;8.13;;;14.60;92.40;;;;;;5032072;28;20038;-77
2021/09/19 03:50:59;;;;;;;14.02;11.88;;;14.50;92.40;;;;;;5032117;28;20018;-77
2021/09/19 03:53:25;;;;;;;14.57;12.15;;;14.50;92.40;;;;;;5033851;28;20029;-78
2021/09/19 03:55:51;;;;;;;19.85;15.60;;;14.50;92.40;;;;;;5032087;28;20463;-77
2021/09/19 03:58:16;;;;;;;15.27;12.27;;;14.50;92.40;;;;;;5033664;28;20030;-79
2021/09/19 04:00:42;;;;;;;11.90;7.55;;;14.50;92.40;;;;;;5033814;28;20021;-79
2021/09/19 04:03:08;;;;;;;17.55;12.63;;;14.50;92.50;;;;;;5049138;28;20032;-79
2021/09/19 04:05:36;;;;;;;12.63;10.05;;;14.50;92.50;;;;;;5059885;28;20021;-78
2021/09/19 04:08:02;;;;;;;15.88;12.60;;;14.50;92.50;;;;;;5060325;28;20041;-77
2021/09/19 04:10:28;;;;;;;13.77;10.52;;;14.50;92.50;;;;;;5045342;28;20029;-78
2021/09/19 04:12:53;;;;;;;14.48;11.88;;;14.50;92.50;;;;;;5036355;28;20021;-78
2021/09/19 04:15:20;;;;;;;14.40;12.23;;;14.40;92.50;;;;;;5035943;28;20025;-78
2021/09/19 04:17:46;;;;;;;14.70;10.02;;;14.50;92.60;;;;;;5036956;28;20065;-77
2021/09/19 04:20:12;;;;;;;9.25;7.53;;;14.40;92.50;;;;;;5036183;28;20397;-77
2021/09/19 04:22:39;;;;;;;12.77;9.18;;;14.40;92.50;;;;;;5038363;28;20022;-78
2021/09/19 04:25:06;;;;;;;14.77;10.57;;;14.40;92.50;;;;;;5035464;28;20488;-78
2021/09/19 04:27:31;;;;;;;15.50;11.35;;;14.40;92.60;;;;;;5037204;28;20448;-76
2021/09/19 04:29:57;;;;;;;11.70;9.05;;;14.30;92.60;;;;;;5036846;28;20030;-77
2021/09/19 04:32:23;;;;;;;14.60;12.30;;;14.30;92.60;;;;;;5037846;28;20508;-78
2021/09/19 04:34:49;;;;;;;12.88;10.02;;;14.30;92.70;;;;;;5040686;28;20040;-78
2021/09/19 04:37:16;;;;;;;12.90;10.25;;;14.20;92.70;;;;;;5056441;28;20056;-77
2021/09/19 04:39:45;;;;;;;13.55;10.52;;;14.20;92.70;;;;;;5035554;28;20025;-78
2021/09/19 04:42:13;;;;;;;15.50;12.30;;;14.30;92.70;;;;;;5035432;28;20028;-78
2021/09/19 04:44:40;;;;;;;17.17;13.38;;;14.20;92.70;;;;;;5036870;28;20021;-78
2021/09/19 04:47:05;;;;;;;13.73;11.13;;;14.20;92.70;;;;;;5035502;28;20037;-78
2021/09/19 04:49:32;;;;;;;13.55;11.45;;;14.20;92.80;;;;;;5035542;28;20378;-78
2021/09/19 04:51:58;;;;;;;21.15;11.93;;;14.20;92.80;;;;;;5035055;28;20052;-78
2021/09/19 04:54:24;;;;;;;14.90;11.40;;;14.10;92.80;;;;;;5035052;28;20026;-78
2021/09/19 04:56:49;;;;;;;17.00;11.82;;;14.10;92.80;;;;;;5036410;28;20036;-78
2021/09/19 04:59:15;;;;;;;16.00;12.73;;;14.10;92.80;;;;;;5041746;28;20029;-78
2021/09/19 05:01:41;;;;;;;12.13;10.05;;;14.10;92.90;;;;;;5034754;28;20057;-78
2021/09/19 05:04:06;;;;;;;15.55;12.02;;;14.00;92.90;;;;;;5035519;28;20021;-77
2021/09/19 05:06:33;;;;;;;15.45;12.02;;;14.00;92.90;;;;;;5035951;28;20025;-78
2021/09/19 05:08:58;;;;;;;13.55;10.45;;;14.00;92.90;;;;;;5034138;28;20032;-77
2021/09/19 05:11:24;;;;;;;11.65;9.50;;;14.00;93.00;;;;;;5033286;28;20116;-77
2021/09/19 05:13:51;;;;;;;14.63;11.50;;;13.90;93.00;;;;;;5033828;28;20367;-78
2021/09/19 05:16:17;;;;;;;18.17;14.15;;;13.90;93.10;;;;;;5034013;28;20048;-76
2021/09/19 05:18:42;;;;;;;14.23;9.40;;;13.90;93.10;;;;;;5035697;28;20033;-78
2021/09/19 05:21:08;;;;;;;13.05;9.95;;;13.90;93.10;;;;;;5034916;28;20327;-77
2021/09/19 05:23:34;;;;;;;12.52;9.85;;;13.80;93.10;;;;;;5036304;28;20021;-77
2021/09/19 05:25:59;;;;;;;17.63;14.02;;;13.80;93.20;;;;;;5034926;28;20469;-78
2021/09/19 05:28:25;;;;;;;15.73;13.00;;;13.70;93.20;;;;;;5034991;28;20133;-79
2021/09/19 05:30:51;;;;;;;18.00;12.80;;;13.70;93.30;;;;;;5036577;28;20029;-79
2021/09/19 05:33:18;;;;;;;15.63;11.95;;;13.70;93.30;;;;;;5035859;28;20075;-77
2021/09/19 05:35:44;;;;;;;13.73;10.00;;;13.70;93.30;;;;;;5037356;28;20025;-78
2021/09/19 05:38:10;;;;;;;12.25;9.77;;;13.70;93.30;;;;;;5036599;28;20108;-77
2021/09/19 05:40:35;;;;;;;18.10;13.77;;;13.70;93.30;;;;;;5037014;28;20030;-77
2021/09/19 05:43:02;;;;;;;17.50;13.48;;;13.70;93.30;;;;;;5039277;28;20025;-78
2021/09/19 05:45:29;;;;;;;14.98;12.45;;;13.70;93.40;;;;;;5043107;28;20030;-78
2021/09/19 05:47:55;;;;;;;13.07;10.55;;;13.70;93.30;;;;;;5043301;28;20454;-76
2021/09/19 05:50:22;;;;;;;14.18;11.68;;;13.70;93.40;;;;;;5040627;28;20029;-77
2021/09/19 05:52:48;;;;;;;12.45;10.00;;;13.70;93.40;;;;;;5038356;28;20049;-78
2021/09/19 05:55:13;;;;;;;11.65;8.38;;;13.80;93.40;;;;;;5058409;28;20485;-76
2021/09/19 05:57:39;;;;;;;16.48;13.05;;;13.70;93.40;;;;;;5057231;28;20024;-77
2021/09/19 06:00:06;;;;;;;13.88;11.68;;;13.80;93.40;;;;;;5047263;28;20033;-78
2021/09/19 06:02:32;;;;;;;13.65;10.82;;;13.80;93.30;;;;;;5036675;28;20461;-79
2021/09/19 06:04:57;;;;;;;14.73;11.80;;;13.80;93.30;;;;;;5036569;28;20022;-79
2021/09/19 06:07:23;;;;;;;14.93;12.48;;;13.80;93.30;;;;;;5034016;28;20083;-78
2021/09/19 06:09:48;;;;;;;18.08;14.52;;;13.80;93.20;;;;;;5035738;28;20049;-79
2021/09/19 06:12:14;;;;;;;16.33;12.38;;;13.80;93.10;;;;;;5046152;28;20025;-78
2021/09/19 06:14:40;;;;;;;14.38;11.27;;;13.80;93.10;;;;;;5034562;28;20441;-78
2021/09/19 06:17:05;;;;;;;14.45;10.73;;;13.80;93.30;;;;;;5035297;28;20067;-77
2021/09/19 06:19:31;;;;;;;14.55;10.20;;;13.70;93.20;;;;;;5034857;28;20025;-78
2021/09/19 06:21:59;;;;;;;14.57;11.68;;;13.80;93.30;;;;;;5035932;28;20470;-79
2021/09/19 06:24:26;;;;;;;14.52;10.75;;;13.80;93.40;;;;;;5034659;28;20017;-79
2021/09/19 06:26:51;;;;;;;12.88;10.32;;;13.70;93.40;;;;;;5035953;28;20462;-79
2021/09/19 06:29:17;;;;;;;13.52;11.68;;;13.80;93.40;;;;;;5034833;28;20087;-78
2021/09/19 06:31:43;;;;;;;15.40;10.35;;;13.80;93.30;;;;;;5034150;28;20018;-79
2021/09/19 06:34:08;;;;;;;12.65;10.00;;;13.80;93.30;;;;;;5034893;28;20064;-79
2021/09/19 06:36:36;;;;;;;16.58;12.88;;;13.80;93.40;;;;;;5035852;28;20029;-79
2021/09/19 06:39:02;;;;;;;11.50;8.52;;;13.90;93.30;;;;;;5034998;28;20091;-77
2021/09/19 06:41:27;;;;;;;16.02;9.88;;;14.00;93.20;;;;;;5049041;28;20021;-79
2021/09/19 06:43:53;;;;;;;17.25;13.05;;;14.20;93.20;;;;;;5041655;28;20072;-79
2021/09/19 06:46:19;;;;;;;15.68;12.18;;;14.30;92.90;;;;;;5034969;28;20378;-79
2021/09/19 06:48:44;;;;;;;12.95;10.82;;;14.40;92.60;;;;;;5036579;28;20034;-77
2021/09/19 06:51:10;;;;;;;16.88;10.95;;;14.40;92.50;;;;;;5037565;28;20033;-78
2021/09/19 06:53:37;;;;;;;8.60;6.32;;;14.40;92.40;;;;;;5033022;28;20028;-78
2021/09/19 06:56:06;;;;;;;8.15;6.07;;;14.50;92.50;;;;;;5033705;28;20025;-78
2021/09/19 06:58:32;;;;;;;12.00;7.40;;;14.50;92.50;;;;;;5033988;28;20025;-78
2021/09/19 07:00:58;;;;;;;12.32;10.25;;;14.50;92.50;;;;;;5032889;28;20022;-77
2021/09/19 07:03:24;;;;;;;12.45;9.32;;;14.50;92.40;;;;;;5032601;28;20079;-78
2021/09/19 07:05:49;;;;;;;11.10;8.85;;;14.50;92.40;;;;;;5032597;28;20397;-79
2021/09/19 07:08:18;;;;;;;10.02;8.35;;;14.60;92.60;;;;;;5032173;28;20034;-79
2021/09/19 07:10:44;;;;;;;11.45;8.93;;;14.60;92.20;;;;;;5034532;28;20022;-80
2021/09/19 07:13:09;;;;;;;13.23;9.13;;;14.70;92.10;;;;;;5032909;28;20030;-77
2021/09/19 07:15:35;;;;;;;6.85;4.88;;;14.70;92.10;;;;;;5032836;28;20048;-78
2021/09/19 07:18:00;;;;;;;13.00;10.68;;;14.70;92.30;;;;;;5033737;28;20032;-77
2021/09/19 07:20:26;;;;;;;11.38;8.82;;;14.70;92.20;;;;;;5033199;28;20383;-79
2021/09/19 07:22:52;;;;;;;14.60;11.20;;;14.80;92.00;;;;;;5032557;28;20478;-78
2021/09/19 07:25:18;;;;;;;10.00;6.97;;;14.90;91.90;;;;;;5037703;28;20071;-78
2021/09/19 07:27:44;;;;;;;10.23;8.35;;;15.20;91.80;;;;;;5048877;28;20029;-78
2021/09/19 07:30:10;;;;;;;12.75;11.27;;;15.40;91.50;;;;;;5036905;28;20490;-79
2021/09/19 07:32:37;;;;;;;12.43;8.65;;;15.50;90.80;;;;;;5034590;28;20026;-78
2021/09/19 07:35:04;;;;;;;12.95;9.18;;;15.40;91.00;;;;;;5042439;28;20505;-78
2021/09/19 07:37:31;;;;;;;13.23;10.40;;;15.50;91.30;;;;;;5040936;28;20033;-78
2021/09/19 07:39:57;;;;;;;8.10;6.18;;;15.60;91.10;;;;;;5041489;28;20014;-77
2021/09/19 07:42:24;;;;;;;11.77;8.07;;;15.90;91.40;;;;;;5044146;28;20026;-78
2021/09/19 07:44:53;;;;;;;8.32;4.25;;;16.10;90.60;;;;;;5061014;28;20019;-77
2021/09/19 07:47:19;;;;;;;4.57;2.13;;;16.30;91.00;;;;;;5069244;28;20037;-77
2021/09/19 07:49:45;;;;;;;3.83;2.05;;;16.70;91.20;;;;;;5063990;28;20025;-78
2021/09/19 07:52:15;;;;;;;6.68;1.40;;;16.80;91.10;;;;;;5056070;28;20032;-77
2021/09/19 07:54:41;;;;;;;4.60;1.65;;;17.10;91.10;;;;;;5040506;28;20033;-77
2021/09/19 07:57:06;;;;;;;6.15;2.42;;;17.30;90.40;;;;;;5031226;28;20124;-78
2021/09/19 07:59:32;;;;;;;7.57;2.45;;;17.50;89.70;;;;;;5032894;28;20163;-80
2021/09/19 08:01:58;;;;;;;4.82;2.67;;;17.70;89.00;;;;;;5033189;28;20025;-80
2021/09/19 08:04:24;;;;;;;5.45;2.92;;;17.90;87.80;;;;;;5038071;28;20032;-78
2021/09/19 08:06:51;;;;;;;4.93;2.40;;;18.10;87.10;;;;;;5031496;28;20041;-81
2021/09/19 08:09:16;;;;;;;6.10;2.50;;;18.20;86.60;;;;;;5032387;28;20421;-79
2021/09/19 08:11:42;;;;;;;9.68;3.55;;;18.30;85.90;;;;;;5033203;28;20035;-77
2021/09/19 08:14:08;;;;;;;5.18;2.60;;;18.30;85.80;;;;;;5033020;28;20028;-78
2021/09/19 08:16:39;;;;;;;8.25;4.20;;;18.40;85.70;;;;;;5032142;28;20029;-80
2021/09/19 08:19:08;;;;;;;9.95;7.97;;;18.60;84.30;;;;;;5031408;28;20029;-79
2021/09/19 08:21:36;;;;;;;12.00;7.70;;;18.60;80.90;;;;;;5032159;28;20022;-79
2021/09/19 08:24:04;;;;;;;9.40;7.55;;;18.60;79.70;;;;;;5032614;28;20486;-80
2021/09/19 08:26:30;;;;;;;9.32;6.90;;;18.80;79.50;;;;;;5032830;28;20021;-79
2021/09/19 08:28:56;;;;;;;11.07;7.43;;;18.90;80.40;;;;;;5032275;28;20040;-79
2021/09/19 08:31:22;;;;;;;9.88;6.35;;;19.00;78.30;;;;;;5033364;28;20025;-79
2021/09/19 08:33:48;;;;;;;10.50;7.43;;;19.00;78.00;;;;;;5032298;28;20032;-78
2021/09/19 08:36:14;;;;;;;8.55;6.22;;;19.00;76.40;;;;;;5032038;28;20462;-79
2021/09/19 08:38:39;;;;;;;6.93;5.15;;;19.00;77.10;;;;;;5032486;28;20034;-79
2021/09/19 08:41:06;;;;;;;5.72;3.80;;;19.20;77.90;;;;;;5035537;28;20026;-79
2021/09/19 08:43:31;;;;;;;6.68;4.72;;;19.30;79.30;;;;;;5045281;28;20025;-79
2021/09/19 08:45:57;;;;;;;7.10;4.78;;;19.50;81.00;;;;;;5056328;28;20021;-77
2021/09/19 08:48:23;;;;;;;4.60;2.50;;;19.70;78.80;;;;;;5068754;28;20127;-78
2021/09/19 08:50:52;;;;;;;4.55;2.83;;;19.90;80.60;;;;;;5054785;28;20100;-78
2021/09/19 08:53:19;;;;;;;6.18;3.45;;;19.90;79.50;;;;;;5051890;28;20020;-78
2021/09/19 08:55:45;;;;;;;4.40;2.13;;;19.90;79.40;;;;;;5055099;28;20047;-78
2021/09/19 08:58:12;;;;;;;3.95;2.40;;;20.00;81.20;;;;;;5036597;28;20033;-76
2021/09/19 09:00:49;;;;;;;3.60;2.47;;;20.10;81.70;;;;;;5046795;28;20086;-76
2021/09/19 09:03:23;;;;;;;4.50;2.80;;;20.30;81.20;;;;;;5036081;28;20025;-76
2021/09/19 09:05:59;;;;;;;4.53;3.00;;;20.70;80.20;;;;;;5034275;28;20018;-76
2021/09/19 09:08:26;;;;;;;3.60;1.77;;;21.00;78.50;;;;;;5034975;28;20025;-77
2021/09/19 09:10:55;;;;;;;3.85;2.40;;;21.20;78.50;;;;;;5034269;28;20028;-77
2021/09/19 09:13:26;;;;;;;3.72;2.15;;;21.50;78.30;;;;;;5033793;28;20025;-77
2021/09/19 09:16:14;;;;;;;4.90;2.58;;;21.60;77.40;;;;;;5035535;28;20500;-77
2021/09/19 09:18:52;;;;;;;5.18;2.70;;;21.70;77.20;;;;;;5035339;28;20017;-77
2021/09/19 09:21:28;;;;;;;5.65;2.28;;;21.60;76.90;;;;;;5034020;28;20021;-76
2021/09/19 09:23:56;;;;;;;3.22;1.88;;;21.60;78.10;;;;;;5035080;28;20052;-76
2021/09/19 09:26:23;;;;;;;5.30;2.72;;;21.60;78.20;;;;;;5034567;28;20543;-77
2021/09/19 09:28:59;;;;;;;5.38;2.60;;;21.80;78.00;;;;;;5033336;28;20045;-77
2021/09/19 09:31:29;;;;;;;2.88;1.60;;;21.90;77.20;;;;;;5035048;28;20291;-76
2021/09/19 09:34:17;;;;;;;;;;;22.10;78.30;;;;;;5039537;28;20045;-76
2021/09/19 09:36:47;;;;;;;4.70;2.40;;;22.30;77.90;;;;;;5054264;28;19897;-76
2021/09/19 09:39:32;;;;;;;;;;;22.60;77.00;;;;;;5058531;28;20033;-77
2021/09/19 09:42:05;;;;;;;4.97;2.80;;;22.80;76.20;;;;;;5046542;28;19905;-78
2021/09/19 09:44:35;;;;;;;6.40;2.78;;;22.90;75.40;;;;;;5034457;28;20091;-76
2021/09/19 09:47:04;;;;;;;3.63;1.98;;;22.90;74.20;;;;;;5033375;28;20072;-76
2021/09/19 09:49:37;;;;;;;4.13;2.30;;;22.80;75.50;;;;;;5034982;28;20021;-78
2021/09/19 09:52:18;;;;;;;3.42;2.13;;;22.80;76.40;;;;;;5035699;28;20033;-77
2021/09/19 09:54:59;;;;;;;4.10;2.03;;;22.90;75.90;;;;;;5035905;28;20028;-77
2021/09/19 09:57:37;;;;;;;4.78;2.50;;;23.00;75.50;;;;;;5033328;28;20378;-77
2021/09/19 10:00:07;;;;;;;5.85;2.05;;;23.00;73.60;;;;;;5034834;28;20362;-77
2021/09/19 10:02:34;;;;;;;3.33;2.00;;;23.00;74.40;;;;;;5035006;28;20029;-77
2021/09/19 10:05:00;;;;;;;3.25;1.85;;;23.10;75.10;;;;;;5033905;28;20022;-77
2021/09/19 10:07:26;;;;;;;2.97;1.90;;;23.10;75.20;;;;;;5033140;28;20025;-77
2021/09/19 10:09:52;;;;;;;2.92;1.73;;;23.30;75.30;;;;;;5034658;28;20021;-77
2021/09/19 10:12:20;;;;;;;4.30;2.40;;;23.30;75.60;;;;;;5034522;28;20040;-78
2021/09/19 10:14:51;;;;;;;4.43;2.28;;;23.30;71.60;;;;;;5035097;28;20032;-76
2021/09/19 10:17:18;;;;;;;4.70;2.45;;;23.30;73.60;;;;;;5034536;28;20055;-77
2021/09/19 10:19:44;;;;;;;4.22;2.20;;;23.30;72.80;;;;;;5039648;28;20029;-77
2021/09/19 10:22:15;;;;;;;4.18;2.20;;;23.30;72.70;;;;;;5054365;28;20029;-77
2021/09/19 10:24:40;;;;;;;3.25;1.63;;;23.40;74.80;;;;;;5048845;28;20021;-77
2021/09/19 10:27:26;;;;;;;5.32;2.75;;;23.70;75.00;;;;;;5045441;28;20029;-76
2021/09/19 10:30:06;;;;;;;4.55;2.35;;;23.90;72.60;;;;;;5048793;28;20033;-78
2021/09/19 10:32:43;;;;;;;2.97;1.77;;;23.80;74.40;;;;;;5051281;28;20028;-76
2021/09/19 10:35:29;;;;;;;5.20;2.58;;;23.70;75.70;;;;;;5052755;28;20017;-76
2021/09/19 10:38:00;;;;;;;3.50;1.70;;;23.80;73.30;;;;;;5053848;28;20175;-77
2021/09/19 10:41:11;;;;;;;5.97;2.33;;;23.90;75.20;;;;;;5054914;28;20028;-80
2021/09/19 10:43:48;;;;;;;3.20;1.85;;;24.10;71.30;;;;;;5040183;28;20381;-77
2021/09/19 10:46:34;;;;;;;6.25;2.67;;;24.10;71.80;;;;;;5053678;28;20059;-77
2021/09/19 10:49:19;;;;;;;3.50;1.85;;;24.10;67.90;;;;;;5053763;28;20037;-76
2021/09/19 10:52:00;;;;;;;3.55;1.40;;;24.10;72.10;;;;;;5054510;28;20021;-77
2021/09/19 10:54:53;;;;;;;2.65;1.55;;;24.20;71.00;;;;;;5052378;28;20060;-80
2021/09/19 10:57:20;;;;;;;2.33;1.33;;;24.40;73.10;;;;;;5052380;28;20469;-79
2021/09/19 11:00:07;;;;;;;3.40;2.13;;;24.40;73.00;;;;;;5052631;28;20040;-77
2021/09/19 11:02:34;;;;;;;5.20;1.90;;;24.50;72.70;;;;;;5052911;28;20025;-78
2021/09/19 11:05:21;;;;;;;2.63;1.73;;;24.40;73.60;;;;;;5053865;28;20032;-78
2021/09/19 11:07:48;;;;;;;2.17;1.40;;;24.30;70.30;;;;;;5053147;28;20094;-78
2021/09/19 11:10:14;;;;;;;2.45;1.38;;;24.30;75.00;;;;;;5050645;28;20024;-78
2021/09/19 11:12:43;;;;;;;2.80;1.60;;;24.40;75.80;;;;;;5052492;28;20107;-78
2021/09/19 11:15:11;;;;;;;2.65;1.30;;;24.50;72.40;;;;;;5057970;28;20131;-78
2021/09/19 11:17:49;;;;;;;2.50;1.35;;;24.60;74.40;;;;;;5057080;28;20108;-79
2021/09/19 11:20:16;;;;;;;3.55;1.73;;;24.70;72.50;;;;;;5054700;28;20025;-78
2021/09/19 11:22:54;;;;;;;2.25;1.30;;;24.90;71.40;;;;;;5052980;28;20017;-79
2021/09/19 11:25:21;;;;;;;3.67;2.05;;;25.00;72.60;;;;;;5075460;28;20014;-79
2021/09/19 11:27:51;;;;;;;2.05;1.30;;;25.20;70.60;;;;;;5075797;28;20043;-79
2021/09/19 11:30:18;;;;;;;2.33;1.33;;;25.20;72.60;;;;;;5073671;28;20062;-79
2021/09/19 11:32:45;;;;;;;3.15;1.20;;;25.20;72.50;;;;;;5060582;28;20086;-80
2021/09/19 11:35:11;;;;;;;1.83;1.27;;;25.00;73.50;;;;;;5052111;28;20040;-80
2021/09/19 11:37:37;;;;;;;3.83;1.70;;;24.70;75.70;;;;;;5051781;28;20027;-80
2021/09/19 11:40:09;;;;;;;2.78;1.13;;;24.70;75.40;;;;;;5053534;28;20032;-80
2021/09/19 11:42:36;;;;;;;4.00;1.83;;;24.80;75.00;;;;;;5054817;28;20025;-79
2021/09/19 11:45:08;;;;;;;2.72;1.70;;;24.90;72.70;;;;;;5059028;28;20040;-78
2021/09/19 11:47:33;;;;;;;2.97;1.50;;;24.80;71.70;;;;;;5050755;28;20035;-81
2021/09/19 11:50:01;;;;;;;2.63;1.55;;;24.90;74.30;;;;;;5048124;28;20116;-81
2021/09/19 11:52:27;;;;;;;2.03;1.23;;;24.90;71.70;;;;;;5033500;28;20029;-79
2021/09/19 11:54:53;;;;;;;3.15;1.25;;;25.00;70.90;;;;;;5032998;28;20417;-79
2021/09/19 11:57:19;;;;;;;3.38;1.70;;;25.10;72.70;;;;;;5040816;28;20049;-80
2021/09/19 11:59:46;;;;;;;2.20;1.25;;;25.10;72.40;;;;;;5048720;28;20040;-79
2021/09/19 12:02:14;;;;;;;3.70;1.92;;;25.10;71.60;;;;;;5032258;28;20506;-79
2021/09/19 12:04:48;;;;;;;3.30;1.35;;;25.10;70.90;;;;;;5032120;28;20075;-80
2021/09/19 12:07:16;;;;;;;2.53;1.40;;;24.90;72.80;;;;;;5031869;28;20136;-79
2021/09/19 12:09:50;;;;;;;3.42;1.35;;;24.70;70.30;;;;;;5032047;28;20018;-78
2021/09/19 12:12:17;;;;;;;2.60;1.20;;;24.60;73.30;;;;;;5033945;28;20377;-79
2021/09/19 12:14:49;;;;;;;2.58;1.40;;;24.70;73.60;;;;;;5031660;28;20112;-79
2021/09/19 12:17:15;;;;;;;2.38;1.35;;;24.60;73.70;;;;;;5032142;28;20052;-78
2021/09/19 12:19:47;;;;;;;2.72;1.73;;;24.50;74.10;;;;;;5032419;28;20033;-80
2021/09/19 12:22:22;;;;;;;4.13;1.52;;;24.50;73.00;;;;;;5033931;28;20088;-79
2021/09/19 12:24:57;;;;;;;2.00;1.30;;;24.50;73.80;;;;;;5037178;28;20021;-79
2021/09/19 12:27:25;;;;;;;3.13;1.77;;;24.50;73.60;;;;;;5035910;28;20389;-79
2021/09/19 12:30:13;;;;;;;2.45;1.50;;;24.40;73.70;;;;;;5052391;28;20119;-79
2021/09/19 12:32:49;;;;;;;3.03;1.70;;;24.30;73.40;;;;;;5052100;28;20014;-79
2021/09/19 12:35:18;;;;;;;2.78;1.70;;;24.40;73.70;;;;;;5036438;28;20072;-79
2021/09/19 12:37:48;;;;;;;4.70;1.83;;;24.60;73.10;;;;;;5036750;28;20064;-79
2021/09/19 12:40:20;;;;;;;6.55;1.67;;;24.70;72.60;;;;;;5035376;28;20083;-80
2021/09/19 12:42:47;;;;;;;2.30;1.33;;;24.80;72.00;;;;;;5035203;28;20021;-80